sensor_id;sensor_type;location;lat;lon;timestamp;pressure;altitude;pressure_sealevel;temperature;humidity
20889;BME280;10604;51.976;7.594;2023-04-09T00:00:13;101886.44;;;7.88;82.90
20889;BME280;10604;51.976;7.594;2023-04-09T00:02:38;101891.69;;;7.79;83.64
20889;BME280;10604;51.976;7.594;2023-04-09T00:05:04;101888.19;;;7.71;83.74
20889;BME280;10604;51.976;7.594;2023-04-09T00:07:30;101888.19;;;7.66;83.70
20889;BME280;10604;51.976;7.594;2023-04-09T00:09:56;101886.44;;;7.67;83.58
20889;BME280;10604;51.976;7.594;2023-04-09T00:12:21;101886.41;;;7.55;84.28
20889;BME280;10604;51.976;7.594;2023-04-09T00:14:46;101880.28;;;7.48;84.78
20889;BME280;10604;51.976;7.594;2023-04-09T00:17:11;101881.16;;;7.36;84.41
20889;BME280;10604;51.976;7.594;2023-04-09T00:19:36;101893.38;;;7.28;84.98
20889;BME280;10604;51.976;7.594;2023-04-09T00:22:02;101889.88;;;7.20;85.17
20889;BME280;10604;51.976;7.594;2023-04-09T00:24:27;101877.56;;;7.04;85.13
20889;BME280;10604;51.976;7.594;2023-04-09T00:26:52;101879.34;;;7.02;85.69
20889;BME280;10604;51.976;7.594;2023-04-09T00:29:18;101873.19;;;6.98;85.57
20889;BME280;10604;51.976;7.594;2023-04-09T00:31:43;101874.94;;;6.95;85.75
20889;BME280;10604;51.976;7.594;2023-04-09T00:34:08;101877.53;;;6.86;85.50
20889;BME280;10604;51.976;7.594;2023-04-09T00:36:33;101881.91;;;6.90;85.40
20889;BME280;10604;51.976;7.594;2023-04-09T00:38:59;101876.66;;;6.85;85.63
20889;BME280;10604;51.976;7.594;2023-04-09T00:41:24;101870.47;;;6.66;85.93
20889;BME280;10604;51.976;7.594;2023-04-09T00:43:49;101884.44;;;6.65;86.26
20889;BME280;10604;51.976;7.594;2023-04-09T00:46:15;101874.00;;;6.75;86.14
20889;BME280;10604;51.976;7.594;2023-04-09T00:48:41;101871.34;;;6.65;85.70
20889;BME280;10604;51.976;7.594;2023-04-09T00:51:07;101868.66;;;6.56;86.27
20889;BME280;10604;51.976;7.594;2023-04-09T00:53:32;101865.13;;;6.48;86.49
20889;BME280;10604;51.976;7.594;2023-04-09T00:55:57;101869.50;;;6.46;86.65
20889;BME280;10604;51.976;7.594;2023-04-09T00:58:22;101865.09;;;6.39;86.84
20889;BME280;10604;51.976;7.594;2023-04-09T01:00:48;101861.63;;;6.43;87.15
20889;BME280;10604;51.976;7.594;2023-04-09T01:03:13;101870.28;;;6.33;86.79
20889;BME280;10604;51.976;7.594;2023-04-09T01:10:58;101871.94;;;6.19;87.23
20889;BME280;10604;51.976;7.594;2023-04-09T01:13:31;101870.19;;;6.15;87.52
20889;BME280;10604;51.976;7.594;2023-04-09T01:15:59;101870.19;;;6.15;87.41
20889;BME280;10604;51.976;7.594;2023-04-09T01:18:30;101870.19;;;6.13;87.43
20889;BME280;10604;51.976;7.594;2023-04-09T01:20:59;101870.16;;;6.12;87.27
20889;BME280;10604;51.976;7.594;2023-04-09T01:28:30;101868.31;;;5.99;87.36
20889;BME280;10604;51.976;7.594;2023-04-09T01:31:00;101871.84;;;6.01;88.02
20889;BME280;10604;51.976;7.594;2023-04-09T01:33:27;101869.19;;;5.96;87.70
20889;BME280;10604;51.976;7.594;2023-04-09T01:35:53;101864.84;;;6.00;87.55
20889;BME280;10604;51.976;7.594;2023-04-09T01:38:19;101869.19;;;5.96;88.36
20889;BME280;10604;51.976;7.594;2023-04-09T01:40:46;101868.28;;;5.93;87.95
20889;BME280;10604;51.976;7.594;2023-04-09T01:43:11;101869.16;;;5.92;88.64
20889;BME280;10604;51.976;7.594;2023-04-09T01:45:38;101864.78;;;5.92;88.29
20889;BME280;10604;51.976;7.594;2023-04-09T01:48:04;101863.84;;;5.87;88.16
20889;BME280;10604;51.976;7.594;2023-04-09T01:50:30;101864.66;;;5.78;88.13
20889;BME280;10604;51.976;7.594;2023-04-09T01:52:56;101866.38;;;5.76;88.33
20889;BME280;10604;51.976;7.594;2023-04-09T01:55:21;101868.13;;;5.74;88.04
20889;BME280;10604;51.976;7.594;2023-04-09T01:57:46;101864.56;;;5.66;88.40
20889;BME280;10604;51.976;7.594;2023-04-09T02:00:12;101861.91;;;5.62;88.20
20889;BME280;10604;51.976;7.594;2023-04-09T02:02:47;101864.47;;;5.54;88.45
20889;BME280;10604;51.976;7.594;2023-04-09T02:05:16;101863.66;;;5.61;88.51
20889;BME280;10604;51.976;7.594;2023-04-09T02:07:44;101864.53;;;5.60;88.56
20889;BME280;10604;51.976;7.594;2023-04-09T02:10:12;101863.66;;;5.63;88.02
20889;BME280;10604;51.976;7.594;2023-04-09T02:12:37;101868.00;;;5.62;88.48
20889;BME280;10604;51.976;7.594;2023-04-09T02:15:04;101863.59;;;5.54;88.06
20889;BME280;10604;51.976;7.594;2023-04-09T02:17:30;101860.88;;;5.43;88.28
20889;BME280;10604;51.976;7.594;2023-04-09T02:19:56;101859.16;;;5.45;88.41
20889;BME280;10604;51.976;7.594;2023-04-09T02:22:21;101860.00;;;5.42;88.57
20889;BME280;10604;51.976;7.594;2023-04-09T02:24:47;101860.88;;;5.40;88.87
20889;BME280;10604;51.976;7.594;2023-04-09T02:27:12;101857.31;;;5.35;88.50
20889;BME280;10604;51.976;7.594;2023-04-09T02:29:38;101853.78;;;5.30;88.40
20889;BME280;10604;51.976;7.594;2023-04-09T02:32:03;101861.59;;;5.28;88.85
20889;BME280;10604;51.976;7.594;2023-04-09T02:34:29;101857.25;;;5.29;89.12
20889;BME280;10604;51.976;7.594;2023-04-09T02:36:54;101844.09;;;5.21;89.36
20889;BME280;10604;51.976;7.594;2023-04-09T02:39:19;101846.69;;;5.20;88.72
20889;BME280;10604;51.976;7.594;2023-04-09T02:41:44;101846.78;;;5.29;89.01
20889;BME280;10604;51.976;7.594;2023-04-09T02:44:09;101848.50;;;5.27;88.93
20889;BME280;10604;51.976;7.594;2023-04-09T02:46:35;101839.75;;;5.19;89.01
20889;BME280;10604;51.976;7.594;2023-04-09T02:49:00;101838.97;;;5.30;89.13
20889;BME280;10604;51.976;7.594;2023-04-09T02:51:25;101838.13;;;5.33;88.79
20889;BME280;10604;51.976;7.594;2023-04-09T02:53:51;101839.84;;;5.31;88.00
20889;BME280;10604;51.976;7.594;2023-04-09T02:56:16;101832.81;;;5.24;88.46
20889;BME280;10604;51.976;7.594;2023-04-09T02:58:42;101832.81;;;5.27;88.13
20889;BME280;10604;51.976;7.594;2023-04-09T03:01:07;101834.41;;;5.09;87.95
20889;BME280;10604;51.976;7.594;2023-04-09T03:03:32;101825.78;;;5.20;87.88
20889;BME280;10604;51.976;7.594;2023-04-09T03:05:57;101831.03;;;5.23;88.20
20889;BME280;10604;51.976;7.594;2023-04-09T03:08:23;101829.28;;;5.22;88.00
20889;BME280;10604;51.976;7.594;2023-04-09T03:10:48;101825.59;;;5.01;87.89
20889;BME280;10604;51.976;7.594;2023-04-09T03:13:13;101822.06;;;4.96;88.07
20889;BME280;10604;51.976;7.594;2023-04-09T03:15:38;101813.34;;;4.97;88.65
20889;BME280;10604;51.976;7.594;2023-04-09T03:18:04;101820.38;;;5.01;88.40
20889;BME280;10604;51.976;7.594;2023-04-09T03:20:29;101817.75;;;5.01;87.96
20889;BME280;10604;51.976;7.594;2023-04-09T03:22:54;101815.09;;;4.98;88.36
20889;BME280;10604;51.976;7.594;2023-04-09T03:25:20;101813.28;;;4.88;87.88
20889;BME280;10604;51.976;7.594;2023-04-09T03:27:45;101817.50;;;4.76;89.12
20889;BME280;10604;51.976;7.594;2023-04-09T03:30:10;101814.78;;;4.68;89.05
20889;BME280;10604;51.976;7.594;2023-04-09T03:32:36;101802.59;;;4.67;88.96
20889;BME280;10604;51.976;7.594;2023-04-09T03:35:01;101813.91;;;4.69;89.30
20889;BME280;10604;51.976;7.594;2023-04-09T03:37:26;101812.19;;;4.68;89.10
20889;BME280;10604;51.976;7.594;2023-04-09T03:39:51;101813.03;;;4.67;88.68
20889;BME280;10604;51.976;7.594;2023-04-09T03:42:17;101805.19;;;4.67;88.82
20889;BME280;10604;51.976;7.594;2023-04-09T03:44:42;101801.72;;;4.66;88.52
20889;BME280;10604;51.976;7.594;2023-04-09T03:47:07;101801.63;;;4.62;88.43
20889;BME280;10604;51.976;7.594;2023-04-09T03:49:33;101799.94;;;4.65;88.39
20889;BME280;10604;51.976;7.594;2023-04-09T03:51:59;101797.31;;;4.64;88.35
20889;BME280;10604;51.976;7.594;2023-04-09T03:54:27;101797.31;;;4.61;88.05
20889;BME280;10604;51.976;7.594;2023-04-09T03:56:52;101798.94;;;4.53;88.65
20889;BME280;10604;51.976;7.594;2023-04-09T03:59:18;101798.06;;;4.52;88.98
20889;BME280;10604;51.976;7.594;2023-04-09T04:01:43;101792.06;;;4.61;87.97
20889;BME280;10604;51.976;7.594;2023-04-09T04:04:08;101798.97;;;4.56;87.89
20889;BME280;10604;51.976;7.594;2023-04-09T04:06:33;101791.97;;;4.55;87.75
20889;BME280;10604;51.976;7.594;2023-04-09T04:08:59;101794.66;;;4.59;87.99
20889;BME280;10604;51.976;7.594;2023-04-09T04:11:24;101799.03;;;4.60;87.85
20889;BME280;10604;51.976;7.594;2023-04-09T04:13:50;101800.78;;;4.60;87.82
20889;BME280;10604;51.976;7.594;2023-04-09T04:16:15;101798.91;;;4.50;88.20
20889;BME280;10604;51.976;7.594;2023-04-09T04:18:40;101797.13;;;4.46;88.45
20889;BME280;10604;51.976;7.594;2023-04-09T04:21:11;101798.81;;;4.44;87.93
20889;BME280;10604;51.976;7.594;2023-04-09T04:23:36;101793.56;;;4.41;88.33
20889;BME280;10604;51.976;7.594;2023-04-09T04:26:01;101802.16;;;4.33;88.00
20889;BME280;10604;51.976;7.594;2023-04-09T04:28:33;101806.50;;;4.31;88.03
20889;BME280;10604;51.976;7.594;2023-04-09T04:30:59;101802.22;;;4.37;88.56
20889;BME280;10604;51.976;7.594;2023-04-09T04:33:24;101799.56;;;4.33;88.45
20889;BME280;10604;51.976;7.594;2023-04-09T04:35:49;101804.69;;;4.24;88.59
20889;BME280;10604;51.976;7.594;2023-04-09T04:38:14;101798.63;;;4.28;88.84
20889;BME280;10604;51.976;7.594;2023-04-09T04:40:40;101814.28;;;4.28;88.31
20889;BME280;10604;51.976;7.594;2023-04-09T04:43:05;101812.59;;;4.30;88.52
20889;BME280;10604;51.976;7.594;2023-04-09T04:45:30;101810.75;;;4.23;87.91
20889;BME280;10604;51.976;7.594;2023-04-09T04:47:55;101814.22;;;4.22;87.87
20889;BME280;10604;51.976;7.594;2023-04-09T04:50:21;101814.38;;;4.34;87.94
20889;BME280;10604;51.976;7.594;2023-04-09T04:52:46;101812.31;;;4.09;87.99
20889;BME280;10604;51.976;7.594;2023-04-09T04:55:11;101812.34;;;4.12;87.88
20889;BME280;10604;51.976;7.594;2023-04-09T04:57:36;101807.97;;;4.10;87.95
20889;BME280;10604;51.976;7.594;2023-04-09T05:00:01;101813.13;;;4.07;88.28
20889;BME280;10604;51.976;7.594;2023-04-09T05:02:27;101811.38;;;4.06;88.48
20889;BME280;10604;51.976;7.594;2023-04-09T05:04:52;101812.22;;;4.03;88.66
20889;BME280;10604;51.976;7.594;2023-04-09T05:07:17;101824.44;;;4.04;88.67
20889;BME280;10604;51.976;7.594;2023-04-09T05:09:42;101809.69;;;4.09;88.76
20889;BME280;10604;51.976;7.594;2023-04-09T05:12:08;101808.75;;;4.04;88.77
20889;BME280;10604;51.976;7.594;2023-04-09T05:14:33;101807.03;;;4.06;88.77
20889;BME280;10604;51.976;7.594;2023-04-09T05:16:59;101816.59;;;4.04;89.48
20889;BME280;10604;51.976;7.594;2023-04-09T05:19:24;101810.56;;;4.08;89.16
20889;BME280;10604;51.976;7.594;2023-04-09T05:21:49;101813.25;;;4.16;89.24
20889;BME280;10604;51.976;7.594;2023-04-09T05:24:14;101812.34;;;4.12;89.29
20889;BME280;10604;51.976;7.594;2023-04-09T05:26:40;101815.03;;;4.17;89.18
20889;BME280;10604;51.976;7.594;2023-04-09T05:29:05;101813.25;;;4.16;89.18
20889;BME280;10604;51.976;7.594;2023-04-09T05:31:30;101822.03;;;4.21;89.58
20889;BME280;10604;51.976;7.594;2023-04-09T05:33:55;101818.63;;;4.26;89.25
20889;BME280;10604;51.976;7.594;2023-04-09T05:36:21;101819.59;;;4.34;89.01
20889;BME280;10604;51.976;7.594;2023-04-09T05:38:46;101824.88;;;4.41;89.31
20889;BME280;10604;51.976;7.594;2023-04-09T05:41:12;101823.25;;;4.49;89.31
20889;BME280;10604;51.976;7.594;2023-04-09T05:43:37;101814.63;;;4.53;89.33
20889;BME280;10604;51.976;7.594;2023-04-09T05:46:03;101809.44;;;4.57;89.09
20889;BME280;10604;51.976;7.594;2023-04-09T05:48:28;101814.75;;;4.65;89.01
20889;BME280;10604;51.976;7.594;2023-04-09T05:50:53;101823.50;;;4.67;89.86
20889;BME280;10604;51.976;7.594;2023-04-09T05:53:18;101820.09;;;4.74;89.60
20889;BME280;10604;51.976;7.594;2023-04-09T05:55:44;101821.84;;;4.78;90.01
20889;BME280;10604;51.976;7.594;2023-04-09T05:58:10;101816.75;;;4.87;90.92
20889;BME280;10604;51.976;7.594;2023-04-09T06:00:35;101824.59;;;4.90;91.63
20889;BME280;10604;51.976;7.594;2023-04-09T06:03:01;101825.72;;;5.13;92.31
20889;BME280;10604;51.976;7.594;2023-04-09T06:05:26;101834.50;;;5.19;91.71
20889;BME280;10604;51.976;7.594;2023-04-09T06:07:53;101831.16;;;5.35;92.39
20889;BME280;10604;51.976;7.594;2023-04-09T06:10:18;101828.59;;;5.39;92.51
20889;BME280;10604;51.976;7.594;2023-04-09T06:12:43;101834.75;;;5.46;92.97
20889;BME280;10604;51.976;7.594;2023-04-09T06:15:09;101822.66;;;5.63;93.77
20889;BME280;10604;51.976;7.594;2023-04-09T06:17:34;101832.41;;;5.81;93.24
20889;BME280;10604;51.976;7.594;2023-04-09T06:20:00;101836.00;;;5.94;93.04
20889;BME280;10604;51.976;7.594;2023-04-09T06:22:25;101844.75;;;5.97;92.92
20889;BME280;10604;51.976;7.594;2023-04-09T06:24:50;101840.38;;;5.98;93.25
20889;BME280;10604;51.976;7.594;2023-04-09T06:27:15;101837.81;;;6.05;93.40
20889;BME280;10604;51.976;7.594;2023-04-09T06:29:42;101852.69;;;6.08;93.94
20889;BME280;10604;51.976;7.594;2023-04-09T06:32:08;101842.31;;;6.23;94.40
20889;BME280;10604;51.976;7.594;2023-04-09T06:34:33;101844.09;;;6.33;94.19
20889;BME280;10604;51.976;7.594;2023-04-09T06:36:58;101844.94;;;6.26;93.15
20889;BME280;10604;51.976;7.594;2023-04-09T06:39:23;101837.16;;;6.47;93.65
20889;BME280;10604;51.976;7.594;2023-04-09T06:41:49;101837.25;;;6.62;93.63
20889;BME280;10604;51.976;7.594;2023-04-09T06:44:14;101837.28;;;6.72;93.71
20889;BME280;10604;51.976;7.594;2023-04-09T06:46:39;101842.50;;;6.65;93.51
20889;BME280;10604;51.976;7.594;2023-04-09T06:49:05;101846.06;;;6.86;93.42
20889;BME280;10604;51.976;7.594;2023-04-09T06:51:30;101847.84;;;6.96;92.88
20889;BME280;10604;51.976;7.594;2023-04-09T06:53:56;101853.09;;;7.05;92.31
20889;BME280;10604;51.976;7.594;2023-04-09T06:56:21;101850.50;;;7.25;92.39
20889;BME280;10604;51.976;7.594;2023-04-09T06:58:46;101841.81;;;7.30;91.91
20889;BME280;10604;51.976;7.594;2023-04-09T07:01:11;101842.66;;;7.41;91.28
20889;BME280;10604;51.976;7.594;2023-04-09T07:03:37;101846.19;;;7.53;90.94
20889;BME280;10604;51.976;7.594;2023-04-09T07:06:02;101849.69;;;7.73;91.02
20889;BME280;10604;51.976;7.594;2023-04-09T07:08:28;101851.41;;;7.89;91.08
20889;BME280;10604;51.976;7.594;2023-04-09T07:10:53;101848.78;;;7.91;90.62
20889;BME280;10604;51.976;7.594;2023-04-09T07:13:18;101847.88;;;8.11;89.94
20889;BME280;10604;51.976;7.594;2023-04-09T07:15:43;101847.88;;;8.14;89.27
20889;BME280;10604;51.976;7.594;2023-04-09T07:18:08;101855.72;;;8.40;89.87
20889;BME280;10604;51.976;7.594;2023-04-09T07:20:34;101854.81;;;8.52;88.51
20889;BME280;10604;51.976;7.594;2023-04-09T07:22:59;101854.78;;;8.58;87.22
20889;BME280;10604;51.976;7.594;2023-04-09T07:25:25;101854.75;;;8.73;86.34
20889;BME280;10604;51.976;7.594;2023-04-09T07:27:50;101852.91;;;8.84;85.84
20889;BME280;10604;51.976;7.594;2023-04-09T07:30:16;101851.88;;;9.16;85.53
20889;BME280;10604;51.976;7.594;2023-04-09T07:32:41;101856.22;;;9.20;84.70
20889;BME280;10604;51.976;7.594;2023-04-09T07:35:07;101857.84;;;9.39;82.88
20889;BME280;10604;51.976;7.594;2023-04-09T07:37:33;101865.63;;;9.57;82.79
20889;BME280;10604;51.976;7.594;2023-04-09T07:39:59;101855.75;;;9.80;82.15
20889;BME280;10604;51.976;7.594;2023-04-09T07:42:25;101857.28;;;10.03;81.21
20889;BME280;10604;51.976;7.594;2023-04-09T07:44:51;101856.31;;;10.17;79.79
